HR-0003 weather

Public forecast

Using degrees Celsius for public forecast. Weather courtesy of forecast.io.

Closest aviation weather report (METAR) to Rijeka Seaplane Terminal

Closest report is Rijeka Airport, 8.6 nm (15.9 km) SE. Retrieved 2020/08/09 14:30 UTC (30 minutes ago):

LDRI 091430Z 31008KT 9999 VCTS FEW040CB FEW045 32/19 Q1014

Closest aviation forecast (TAF) to Rijeka Seaplane Terminal

Closest forecast is Rijeka Airport, 8.6 nm (15.9 km) SE. Retrieved 2020/08/09 12:00 UTC (3 hours ago):

TAF LDRI 091125Z 0912/1012 VRB02KT CAVOK TX34/0913Z TN23/1004Z PROB40 TEMPO 0912/0917 32008KT BECMG 1010/1012 32008KT